Time,TemperatureF,DewpointF,PressureIn,WindDirection,WindDirectionDegrees,WindSpeedMPH,WindSpeedGustMPH,Humidity,HourlyPrecipIn,Conditions,Clouds,dailyrainin,SolarRadiationWatts/m^2,SoftwareType,DateUTC
2013-03-06 00:02:00,24.5,22.8,30.19,NW,321,4.2,5.8,93,0.00,RA,,0.00,0.0,WeatherDisplay:10.37,2013-03-06 06:02:00,
2013-03-06 00:07:00,24.5,22.8,30.19,NW,315,4.3,8.1,93,0.00,RA,,0.00,0.0,WeatherDisplay:10.37,2013-03-06 06:07:00,
2013-03-06 00:12:00,24.7,23.0,30.19,NW,321,3.8,7.2,93,0.00,BKN,,0.00,0.0,WeatherDisplay:10.37,2013-03-06 06:12:00,
2013-03-06 00:17:00,24.7,23.0,30.20,NW,318,5.0,8.0,93,0.00,BKN,,0.00,0.0,WeatherDisplay:10.37,2013-03-06 06:17:00,
2013-03-06 00:22:00,24.5,22.8,30.20,NW,321,4.8,8.4,93,0.00,BKN,,0.00,0.0,WeatherDisplay:10.37,2013-03-06 06:22:00,
2013-03-06 00:27:00,24.5,22.8,30.20,NW,323,3.6,4.8,93,0.00,BKN,,0.00,0.0,WeatherDisplay:10.37,2013-03-06 06:27:00,
2013-03-06 00:32:00,24.5,22.8,30.20,NW,313,4.7,6.0,93,0.00,BKN,,0.00,0.0,WeatherDisplay:10.37,2013-03-06 06:32:00,
2013-03-06 00:37:00,24.5,22.8,30.20,NW,317,0.4,3.6,93,0.00,BKN,,0.00,0.0,WeatherDisplay:10.37,2013-03-06 06:37:00,
2013-03-06 00:42:00,24.5,22.5,30.20,NNW,332,0.1,1.2,92,0.00,BKN,,0.00,0.0,WeatherDisplay:10.37,2013-03-06 06:42:00,
2013-03-06 00:47:00,24.5,22.5,30.20,NNW,340,2.1,5.8,92,0.00,BKN,,0.00,0.0,WeatherDisplay:10.37,2013-03-06 06:47:00,
2013-03-06 00:52:00,24.5,22.5,30.20,NNW,327,2.8,3.6,92,0.00,BKN,,0.00,0.0,WeatherDisplay:10.37,2013-03-06 06:52:00,
2013-03-06 00:57:00,24.5,22.5,30.20,North,349,1.9,3.6,92,0.00,BKN,,0.00,0.0,WeatherDisplay:10.37,2013-03-06 06:57:00,
2013-03-06 01:02:00,24.4,22.4,30.21,WNW,283,4.3,5.8,92,0.00,BKN,,0.00,0.0,WeatherDisplay:10.37,2013-03-06 07:02:00,
2013-03-06 01:07:00,24.4,22.4,30.21,WNW,303,4.1,4.8,92,0.00,BKN,,0.00,0.0,WeatherDisplay:10.37,2013-03-06 07:07:00,
2013-03-06 01:12:00,24.4,22.4,30.21,NW,317,0.0,1.2,92,0.00,BKN,,0.00,0.0,WeatherDisplay:10.37,2013-03-06 07:12:00,
2013-03-06 01:17:00,24.4,22.4,30.21,NW,318,1.3,3.6,92,0.00,BKN,,0.00,0.0,WeatherDisplay:10.37,2013-03-06 07:17:00,
2013-03-06 01:22:00,24.4,22.4,30.21,WNW,296,4.9,7.2,92,0.00,BKN,,0.00,0.0,WeatherDisplay:10.37,2013-03-06 07:22:00,
2013-03-06 01:27:00,24.4,22.4,30.21,WNW,294,2.9,3.6,92,0.00,BKN,,0.00,0.0,WeatherDisplay:10.37,2013-03-06 07:27:00,
2013-03-06 01:32:00,24.4,22.4,30.22,NNW,346,6.0,9.6,92,0.00,BKN,,0.00,0.0,WeatherDisplay:10.37,2013-03-06 07:32:00,
2013-03-06 01:37:00,24.4,22.4,30.22,NNW,329,1.8,3.6,92,0.00,BKN,,0.00,0.0,WeatherDisplay:10.37,2013-03-06 07:37:00,
2013-03-06 01:42:00,24.4,22.2,30.22,NNW,339,1.9,4.6,91,0.00,BKN,,0.00,0.0,WeatherDisplay:10.37,2013-03-06 07:42:00,
2013-03-06 01:47:00,24.2,22.0,30.22,North,355,0.0,0.0,91,0.00,BKN,,0.00,0.0,WeatherDisplay:10.37,2013-03-06 07:47:00,
2013-03-06 01:52:00,24.2,22.0,30.22,NW,314,0.4,2.4,91,0.00,BKN,,0.00,0.0,WeatherDisplay:10.37,2013-03-06 07:52:00,
2013-03-06 01:57:00,24.2,22.0,30.22,NW,305,0.0,2.3,91,0.00,BKN,,0.00,0.0,WeatherDisplay:10.37,2013-03-06 07:57:00,
2013-03-06 02:02:00,24.2,22.0,30.21,NNW,337,0.0,5.8,91,0.00,BKN,,0.00,0.0,WeatherDisplay:10.37,2013-03-06 08:02:00,
2013-03-06 02:07:00,24.1,21.9,30.21,NW,323,2.8,3.6,91,0.00,BKN,,0.00,0.0,WeatherDisplay:10.37,2013-03-06 08:07:00,
2013-03-06 02:12:00,24.1,21.9,30.21,NW,326,0.0,1.2,91,0.00,BKN,,0.00,0.0,WeatherDisplay:10.37,2013-03-06 08:12:00,
2013-03-06 02:17:00,24.1,21.9,30.21,WNW,297,0.2,2.3,91,0.00,BKN,,0.00,0.0,WeatherDisplay:10.37,2013-03-06 08:17:00,
2013-03-06 02:22:00,24.1,21.9,30.21,WNW,291,1.9,2.4,91,0.00,OVC,,0.00,0.0,WeatherDisplay:10.37,2013-03-06 08:22:00,
2013-03-06 02:27:00,24.1,21.9,30.21,WNW,301,2.4,4.8,91,0.00,OVC,,0.00,0.0,WeatherDisplay:10.37,2013-03-06 08:27:00,
2013-03-06 02:32:00,24.1,21.9,30.23,WNW,294,3.0,4.8,91,0.00,OVC,,0.00,0.0,WeatherDisplay:10.37,2013-03-06 08:32:00,
2013-03-06 02:37:00,24.1,21.9,30.23,NW,323,1.4,6.0,91,0.00,OVC,,0.00,0.0,WeatherDisplay:10.37,2013-03-06 08:37:00,
2013-03-06 02:42:00,24.1,21.9,30.23,NW,308,4.2,5.8,91,0.00,OVC,,0.00,0.0,WeatherDisplay:10.37,2013-03-06 08:42:00,
2013-03-06 02:47:00,24.1,21.9,30.23,NW,308,1.2,5.8,91,0.00,OVC,,0.00,0.0,WeatherDisplay:10.37,2013-03-06 08:47:00,
2013-03-06 02:52:00,24.1,21.9,30.23,NW,309,0.0,0.0,91,0.00,OVC,,0.00,0.0,WeatherDisplay:10.37,2013-03-06 08:52:00,
2013-03-06 02:57:00,24.1,21.9,30.23,NW,315,1.9,3.6,91,0.00,OVC,,0.00,0.0,WeatherDisplay:10.37,2013-03-06 08:57:00,
2013-03-06 03:02:00,24.1,21.9,30.23,WNW,298,0.0,1.2,91,0.00,OVC,,0.00,0.0,WeatherDisplay:10.37,2013-03-06 09:02:00,
2013-03-06 03:07:00,24.1,21.9,30.23,NW,309,2.3,6.0,91,0.00,OVC,,0.00,0.0,WeatherDisplay:10.37,2013-03-06 09:07:00,
2013-03-06 03:12:00,24.1,21.9,30.23,NW,326,0.7,2.4,91,0.00,OVC,,0.00,0.0,WeatherDisplay:10.37,2013-03-06 09:12:00,
2013-03-06 03:17:00,24.1,21.9,30.24,NW,311,3.6,4.8,91,0.00,OVC,,0.00,0.0,WeatherDisplay:10.37,2013-03-06 09:17:00,
2013-03-06 03:22:00,24.1,21.9,30.24,WNW,284,4.1,4.8,91,0.00,OVC,,0.00,0.0,WeatherDisplay:10.37,2013-03-06 09:22:00,
2013-03-06 03:27:00,24.1,21.9,30.24,NW,315,1.6,4.6,91,0.00,OVC,,0.00,0.0,WeatherDisplay:10.37,2013-03-06 09:27:00,
2013-03-06 03:32:00,24.1,21.9,30.24,WNW,299,0.5,2.4,91,0.00,OVC,,0.00,0.0,WeatherDisplay:10.37,2013-03-06 09:32:00,
2013-03-06 03:37:00,24.1,21.9,30.24,NW,306,0.1,1.2,91,0.00,OVC,,0.00,0.0,WeatherDisplay:10.37,2013-03-06 09:37:00,
2013-03-06 03:42:00,24.1,21.9,30.24,NW,311,2.5,4.8,91,0.00,OVC,,0.00,0.0,WeatherDisplay:10.37,2013-03-06 09:42:00,
2013-03-06 03:47:00,24.1,21.9,30.25,NW,307,1.9,3.6,91,0.00,OVC,,0.00,0.0,WeatherDisplay:10.37,2013-03-06 09:47:00,
2013-03-06 03:52:00,24.1,21.9,30.25,NW,306,0.4,3.5,91,0.00,OVC,,0.00,0.0,WeatherDisplay:10.37,2013-03-06 09:52:00,
2013-03-06 03:57:00,24.1,21.9,30.25,NW,306,1.0,2.4,91,0.00,OVC,,0.00,0.0,WeatherDisplay:10.37,2013-03-06 09:57:00,
2013-03-06 04:02:00,24.1,21.9,30.25,NNW,344,1.5,3.6,91,0.00,OVC,,0.00,0.0,WeatherDisplay:10.37,2013-03-06 10:02:00,
2013-03-06 04:07:00,24.1,21.9,30.25,NW,310,0.0,2.3,91,0.00,OVC,,0.00,0.0,WeatherDisplay:10.37,2013-03-06 10:07:00,
2013-03-06 04:12:00,24.1,21.9,30.25,NW,310,0.0,0.0,91,0.00,OVC,,0.00,0.0,WeatherDisplay:10.37,2013-03-06 10:12:00,
2013-03-06 04:17:00,23.9,21.7,30.26,WNW,299,0.0,4.6,91,0.00,OVC,,0.00,0.0,WeatherDisplay:10.37,2013-03-06 10:17:00,
2013-03-06 04:22:00,23.9,21.7,30.26,NNW,328,2.3,4.8,91,0.00,OVC,,0.00,0.0,WeatherDisplay:10.37,2013-03-06 10:22:00,
2013-03-06 04:27:00,23.9,21.7,30.26,WNW,286,2.8,4.8,91,0.00,OVC,,0.00,0.0,WeatherDisplay:10.37,2013-03-06 10:27:00,
2013-03-06 04:32:00,23.9,21.7,30.27,WNW,294,3.3,4.8,91,0.00,OVC,,0.00,0.0,WeatherDisplay:10.37,2013-03-06 10:32:00,
2013-03-06 04:37:00,23.9,21.7,30.27,NNW,344,4.9,6.0,91,0.00,OVC,,0.00,0.0,WeatherDisplay:10.37,2013-03-06 10:37:00,
2013-03-06 04:42:00,23.9,21.7,30.27,WNW,294,5.1,7.2,91,0.00,OVC,,0.00,0.0,WeatherDisplay:10.37,2013-03-06 10:42:00,
2013-03-06 04:47:00,23.9,21.7,30.28,WNW,298,5.4,6.0,91,0.00,OVC,,0.00,0.0,WeatherDisplay:10.37,2013-03-06 10:47:00,
2013-03-06 04:52:00,23.9,21.7,30.28,WNW,303,3.8,6.0,91,0.00,OVC,,0.00,0.0,WeatherDisplay:10.37,2013-03-06 10:52:00,
2013-03-06 04:57:00,23.8,21.6,30.28,WNW,294,3.4,6.0,91,0.00,OVC,,0.00,0.0,WeatherDisplay:10.37,2013-03-06 10:57:00,
2013-03-06 05:02:00,23.8,21.6,30.28,WNW,296,3.3,8.1,91,0.00,OVC,,0.00,0.0,WeatherDisplay:10.37,2013-03-06 11:02:00,
2013-03-06 05:07:00,23.8,21.6,30.28,WNW,298,1.9,5.8,91,0.00,OVC,,0.00,0.0,WeatherDisplay:10.37,2013-03-06 11:07:00,
2013-03-06 05:12:00,23.8,21.6,30.28,NNW,344,5.0,7.2,91,0.00,OVC,,0.00,0.0,WeatherDisplay:10.37,2013-03-06 11:12:00,
2013-03-06 05:17:00,23.8,21.6,30.29,NW,305,2.7,4.6,91,0.00,OVC,,0.00,0.0,WeatherDisplay:10.37,2013-03-06 11:17:00,
2013-03-06 05:22:00,23.8,21.6,30.29,WNW,284,3.1,4.8,91,0.00,BKN,,0.00,0.0,WeatherDisplay:10.37,2013-03-06 11:22:00,
2013-03-06 05:27:00,23.8,21.6,30.29,NW,313,3.0,5.0,91,0.00,BKN,,0.00,0.0,WeatherDisplay:10.37,2013-03-06 11:27:00,
2013-03-06 05:32:00,23.8,21.3,30.29,WNW,301,4.0,6.0,90,0.00,BKN,,0.00,0.0,WeatherDisplay:10.37,2013-03-06 11:32:00,
2013-03-06 05:37:00,23.8,21.3,30.29,NNW,329,5.1,7.2,90,0.00,BKN,,0.00,0.0,WeatherDisplay:10.37,2013-03-06 11:37:00,
2013-03-06 05:42:00,23.6,21.1,30.29,NW,321,2.6,4.8,90,0.00,BKN,,0.00,0.0,WeatherDisplay:10.37,2013-03-06 11:42:00,
2013-03-06 05:47:00,23.6,21.1,30.30,NW,317,5.1,7.2,90,0.00,BKN,,0.00,0.0,WeatherDisplay:10.37,2013-03-06 11:47:00,
2013-03-06 05:52:00,23.6,21.1,30.30,NW,309,3.6,8.4,90,0.00,BKN,,0.00,0.0,WeatherDisplay:10.37,2013-03-06 11:52:00,
2013-03-06 05:57:00,23.6,21.1,30.30,NW,315,1.7,3.6,90,0.00,BKN,,0.00,0.0,WeatherDisplay:10.37,2013-03-06 11:57:00,
2013-03-06 06:02:00,23.6,21.1,30.30,NW,308,0.9,3.6,90,0.00,BKN,,0.00,0.0,WeatherDisplay:10.37,2013-03-06 12:02:00,
2013-03-06 06:07:00,23.6,21.1,30.30,West,277,3.2,6.0,90,0.00,BKN,,0.00,0.0,WeatherDisplay:10.37,2013-03-06 12:07:00,
2013-03-06 06:12:00,23.6,21.1,30.30,WNW,302,1.9,6.0,90,0.00,BKN,,0.00,0.0,WeatherDisplay:10.37,2013-03-06 12:12:00,
2013-03-06 06:17:00,23.8,21.3,30.30,NW,323,3.3,4.8,90,0.00,BKN,,0.00,0.0,WeatherDisplay:10.37,2013-03-06 12:17:00,
2013-03-06 06:22:00,23.8,21.3,30.30,North,350,2.9,6.0,90,0.00,OVC,,0.00,0.0,WeatherDisplay:10.37,2013-03-06 12:22:00,
2013-03-06 06:27:00,23.8,21.3,30.30,NW,320,2.6,6.0,90,0.00,OVC,,0.00,0.0,WeatherDisplay:10.37,2013-03-06 12:27:00,
2013-03-06 06:32:00,23.8,21.0,30.30,NW,320,0.6,2.4,89,0.00,OVC,,0.00,5.0,WeatherDisplay:10.37,2013-03-06 12:32:00,
2013-03-06 06:37:00,23.8,21.0,30.30,WNW,303,0.0,0.0,89,0.00,OVC,,0.00,7.0,WeatherDisplay:10.37,2013-03-06 12:37:00,
2013-03-06 06:42:00,23.8,21.0,30.30,WNW,302,0.9,3.6,89,0.00,OVC,,0.00,9.0,WeatherDisplay:10.37,2013-03-06 12:42:00,
2013-03-06 06:47:00,23.8,21.0,30.31,NNW,336,4.1,6.9,89,0.00,OVC,,0.00,12.0,WeatherDisplay:10.37,2013-03-06 12:47:00,
2013-03-06 06:52:00,23.8,21.0,30.31,NW,324,2.8,4.8,89,0.00,OVC,,0.00,14.0,WeatherDisplay:10.37,2013-03-06 12:52:00,
2013-03-06 06:57:00,23.9,21.1,30.31,NW,309,1.4,2.4,89,0.00,OVC,,0.00,16.0,WeatherDisplay:10.37,2013-03-06 12:57:00,
2013-03-06 07:02:00,23.9,21.1,30.31,NW,316,0.0,2.3,89,0.00,OVC,,0.00,21.0,WeatherDisplay:10.37,2013-03-06 13:02:00,
2013-03-06 07:07:00,23.9,21.1,30.31,WNW,302,3.9,4.8,89,0.00,OVC,,0.00,26.0,WeatherDisplay:10.37,2013-03-06 13:07:00,
2013-03-06 07:12:00,23.9,21.1,30.31,NW,304,1.0,3.6,89,0.00,OVC,,0.00,39.0,WeatherDisplay:10.37,2013-03-06 13:12:00,
2013-03-06 07:17:00,23.9,21.1,30.31,NW,305,3.3,4.8,89,0.00,OVC,,0.00,47.0,WeatherDisplay:10.37,2013-03-06 13:17:00,
2013-03-06 07:22:00,24.1,21.3,30.31,WNW,298,5.4,8.4,89,0.00,OVC,,0.00,53.0,WeatherDisplay:10.37,2013-03-06 13:22:00,
2013-03-06 07:27:00,24.1,21.3,30.31,WNW,290,1.9,2.4,89,0.00,OVC,,0.00,51.0,WeatherDisplay:10.37,2013-03-06 13:27:00,
2013-03-06 07:32:00,24.2,21.4,30.32,NNW,340,3.8,4.8,89,0.00,OVC,,0.00,53.0,WeatherDisplay:10.37,2013-03-06 13:32:00,
2013-03-06 07:37:00,24.2,21.4,30.32,WNW,297,0.2,3.5,89,0.00,OVC,,0.00,56.0,WeatherDisplay:10.37,2013-03-06 13:37:00,
2013-03-06 07:42:00,24.2,21.4,30.32,NW,319,5.4,6.0,89,0.00,BKN,,0.00,58.0,WeatherDisplay:10.37,2013-03-06 13:42:00,
2013-03-06 07:47:00,24.2,21.4,30.32,NW,313,4.1,6.0,89,0.00,BKN,,0.00,65.0,WeatherDisplay:10.37,2013-03-06 13:47:00,
2013-03-06 07:52:00,24.4,21.6,30.32,WNW,291,4.1,4.8,89,0.00,BKN,,0.00,77.0,WeatherDisplay:10.37,2013-03-06 13:52:00,
2013-03-06 07:57:00,24.4,21.6,30.32,WNW,301,2.5,3.6,89,0.00,BKN,,0.00,77.0,WeatherDisplay:10.37,2013-03-06 13:57:00,
2013-03-06 08:02:00,24.4,21.6,30.33,WNW,287,5.9,8.4,89,0.00,BKN,,0.00,88.0,WeatherDisplay:10.37,2013-03-06 14:02:00,
2013-03-06 08:07:00,24.5,21.7,30.33,NW,309,2.8,6.0,89,0.00,BKN,,0.00,100.0,WeatherDisplay:10.37,2013-03-06 14:07:00,
2013-03-06 08:12:00,24.5,21.7,30.33,NW,305,4.7,8.1,89,0.00,SCT,,0.00,105.0,WeatherDisplay:10.37,2013-03-06 14:12:00,
2013-03-06 08:17:00,24.5,21.7,30.33,WNW,292,5.7,8.4,89,0.00,SCT,,0.00,111.0,WeatherDisplay:10.37,2013-03-06 14:17:00,
2013-03-06 08:22:00,24.5,21.7,30.33,NW,313,1.8,3.6,89,0.00,BKN,,0.00,121.0,WeatherDisplay:10.37,2013-03-06 14:22:00,
2013-03-06 08:27:00,24.7,21.9,30.33,WNW,299,4.8,7.2,89,0.00,BKN,,0.00,127.0,WeatherDisplay:10.37,2013-03-06 14:27:00,
2013-03-06 08:32:00,24.7,21.9,30.34,NW,315,6.1,7.2,89,0.00,BKN,,0.00,137.0,WeatherDisplay:10.37,2013-03-06 14:32:00,
2013-03-06 08:37:00,24.7,21.9,30.34,NW,305,4.2,6.0,89,0.00,BKN,,0.00,149.0,WeatherDisplay:10.37,2013-03-06 14:37:00,
2013-03-06 08:42:00,24.8,22.0,30.34,WNW,294,4.7,6.0,89,0.00,OVC,,0.00,153.0,WeatherDisplay:10.37,2013-03-06 14:42:00,
2013-03-06 08:47:00,24.8,22.0,30.34,WNW,296,7.4,8.4,89,0.00,OVC,,0.00,165.0,WeatherDisplay:10.37,2013-03-06 14:47:00,
2013-03-06 08:52:00,25.0,22.2,30.34,NW,309,5.7,6.9,89,0.00,OVC,,0.00,181.0,WeatherDisplay:10.37,2013-03-06 14:52:00,
2013-03-06 08:57:00,25.0,22.2,30.34,NW,313,6.6,8.1,89,0.00,OVC,,0.00,193.0,WeatherDisplay:10.37,2013-03-06 14:57:00,
2013-03-06 09:02:00,25.0,22.2,30.34,NW,311,5.2,8.4,89,0.00,SCT,,0.00,199.0,WeatherDisplay:10.37,2013-03-06 15:02:00,
2013-03-06 09:07:00,25.1,22.3,30.34,NNW,348,4.8,6.0,89,0.00,SCT,,0.00,204.0,WeatherDisplay:10.37,2013-03-06 15:07:00,
2013-03-06 09:12:00,25.3,22.5,30.34,NW,309,4.8,6.9,89,0.00,SCT,,0.00,213.0,WeatherDisplay:10.37,2013-03-06 15:12:00,
2013-03-06 09:17:00,25.3,22.5,30.34,NW,321,6.3,9.6,89,0.00,SCT,,0.00,204.0,WeatherDisplay:10.37,2013-03-06 15:17:00,
2013-03-06 09:22:00,25.3,22.2,30.34,NW,323,6.8,8.4,88,0.00,SCT,,0.00,204.0,WeatherDisplay:10.37,2013-03-06 15:22:00,
2013-03-06 09:27:00,25.1,22.0,30.34,WNW,301,6.3,7.2,88,0.00,SCT,,0.00,207.0,WeatherDisplay:10.37,2013-03-06 15:27:00,
2013-03-06 09:32:00,25.1,22.0,30.35,WNW,303,3.6,3.6,88,0.00,SCT,,0.00,202.0,WeatherDisplay:10.37,2013-03-06 15:32:00,
2013-03-06 09:37:00,25.3,22.2,30.35,NNW,329,5.8,8.4,88,0.00,SCT,,0.00,206.0,WeatherDisplay:10.37,2013-03-06 15:37:00,
2013-03-06 09:42:00,25.1,22.0,30.35,NW,309,6.8,12.0,88,0.00,SCT,,0.00,213.0,WeatherDisplay:10.37,2013-03-06 15:42:00,
2013-03-06 09:47:00,25.1,22.0,30.35,WNW,296,4.7,8.1,88,0.00,SCT,,0.00,241.0,WeatherDisplay:10.37,2013-03-06 15:47:00,
2013-03-06 09:52:00,25.1,22.0,30.35,NW,319,3.6,7.2,88,0.00,SCT,,0.00,279.0,WeatherDisplay:10.37,2013-03-06 15:52:00,
2013-03-06 09:57:00,25.3,22.2,30.35,NNW,328,7.2,10.8,88,0.00,SCT,,0.00,301.0,WeatherDisplay:10.37,2013-03-06 15:57:00,
2013-03-06 10:02:00,25.6,22.5,30.35,WNW,302,4.1,6.9,88,0.00,BKN,,0.00,287.0,WeatherDisplay:10.37,2013-03-06 16:02:00,
2013-03-06 10:07:00,25.8,22.7,30.35,WNW,298,5.6,7.2,88,0.00,BKN,,0.00,272.0,WeatherDisplay:10.37,2013-03-06 16:07:00,
2013-03-06 10:12:00,26.0,22.7,30.35,WNW,303,4.8,7.2,87,0.00,BKN,,0.00,276.0,WeatherDisplay:10.37,2013-03-06 16:12:00,
2013-03-06 10:17:00,26.0,22.7,30.35,NW,313,5.7,10.8,87,0.00,BKN,,0.00,287.0,WeatherDisplay:10.37,2013-03-06 16:17:00,
2013-03-06 10:22:00,25.8,22.5,30.35,NW,311,6.8,12.7,87,0.00,OVC,,0.00,313.0,WeatherDisplay:10.37,2013-03-06 16:22:00,
2013-03-06 10:27:00,25.8,22.5,30.35,NW,306,4.5,4.8,87,0.00,OVC,,0.00,320.0,WeatherDisplay:10.37,2013-03-06 16:27:00,
2013-03-06 10:32:00,26.1,22.8,30.35,NW,315,5.2,7.2,87,0.00,OVC,,0.00,313.0,WeatherDisplay:10.37,2013-03-06 16:32:00,
2013-03-06 10:37:00,26.1,22.8,30.35,WNW,296,4.0,10.4,87,0.00,OVC,,0.00,315.0,WeatherDisplay:10.37,2013-03-06 16:37:00,
2013-03-06 10:42:00,26.1,22.5,30.35,NW,311,4.9,7.2,86,0.00,OVC,,0.00,306.0,WeatherDisplay:10.37,2013-03-06 16:42:00,
2013-03-06 10:47:00,26.1,22.8,30.35,NW,304,5.2,6.9,87,0.00,OVC,,0.00,323.0,WeatherDisplay:10.37,2013-03-06 16:47:00,
2013-03-06 10:52:00,26.3,22.7,30.35,NNW,337,7.0,9.6,86,0.00,OVC,,0.00,323.0,WeatherDisplay:10.37,2013-03-06 16:52:00,
2013-03-06 10:57:00,26.3,22.7,30.35,WNW,289,7.4,8.4,86,0.00,OVC,,0.00,322.0,WeatherDisplay:10.37,2013-03-06 16:57:00,
2013-03-06 11:02:00,26.3,22.7,30.35,WNW,295,8.5,10.8,86,0.00,OVC,,0.00,336.0,WeatherDisplay:10.37,2013-03-06 17:02:00,
2013-03-06 11:07:00,26.3,22.7,30.35,NW,309,6.6,10.8,86,0.00,OVC,,0.00,350.0,WeatherDisplay:10.37,2013-03-06 17:07:00,
2013-03-06 11:12:00,26.3,22.7,30.35,WNW,290,7.0,8.4,86,0.00,OVC,,0.00,385.0,WeatherDisplay:10.37,2013-03-06 17:12:00,
2013-03-06 11:17:00,26.4,22.5,30.35,NW,306,7.0,10.0,85,0.00,OVC,,0.00,392.0,WeatherDisplay:10.37,2013-03-06 17:17:00,
2013-03-06 11:22:00,26.6,22.7,30.35,WNW,302,7.0,10.0,85,0.00,OVC,,0.00,434.0,WeatherDisplay:10.37,2013-03-06 17:22:00,
2013-03-06 11:27:00,26.7,22.5,30.35,WNW,296,7.0,8.0,84,0.00,OVC,,0.00,381.0,WeatherDisplay:10.37,2013-03-06 17:27:00,
2013-03-06 11:32:00,26.9,23.0,30.35,NNW,330,7.3,9.6,85,0.00,OVC,,0.00,403.0,WeatherDisplay:10.37,2013-03-06 17:32:00,
2013-03-06 11:37:00,26.9,22.7,30.35,WNW,288,6.5,7.2,84,0.00,OVC,,0.00,427.0,WeatherDisplay:10.37,2013-03-06 17:37:00,
2013-03-06 11:42:00,27.0,22.8,30.35,NNW,338,7.8,9.6,84,0.00,OVC,,0.00,455.0,WeatherDisplay:10.37,2013-03-06 17:42:00,
2013-03-06 11:47:00,27.2,23.0,30.35,WNW,286,3.8,4.8,84,0.00,OVC,,0.00,427.0,WeatherDisplay:10.37,2013-03-06 17:47:00,
2013-03-06 11:52:00,27.3,22.8,30.35,West,281,5.4,7.2,83,0.00,OVC,,0.00,461.0,WeatherDisplay:10.37,2013-03-06 17:52:00,
2013-03-06 11:57:00,27.3,22.8,30.35,WNW,289,5.3,8.4,83,0.00,OVC,,0.00,411.0,WeatherDisplay:10.37,2013-03-06 17:57:00,
2013-03-06 12:02:00,27.3,22.8,30.35,NW,304,6.7,10.8,83,0.00,BKN,,0.00,418.0,WeatherDisplay:10.37,2013-03-06 18:02:00,
2013-03-06 12:07:00,27.3,22.8,30.35,WNW,295,5.9,7.2,83,0.00,BKN,,0.00,396.0,WeatherDisplay:10.37,2013-03-06 18:07:00,
2013-03-06 12:12:00,27.3,22.5,30.35,WNW,292,7.8,10.8,82,0.00,BKN,,0.00,439.0,WeatherDisplay:10.37,2013-03-06 18:12:00,
2013-03-06 12:17:00,27.5,22.7,30.35,NW,306,3.0,8.1,82,0.00,BKN,,0.00,454.0,WeatherDisplay:10.37,2013-03-06 18:17:00,
2013-03-06 12:22:00,27.5,22.7,30.35,NW,308,4.0,9.2,82,0.00,BKN,,0.00,452.0,WeatherDisplay:10.37,2013-03-06 18:22:00,
2013-03-06 12:27:00,27.6,22.8,30.35,West,280,3.7,7.2,82,0.00,BKN,,0.00,529.0,WeatherDisplay:10.37,2013-03-06 18:27:00,
2013-03-06 12:32:00,27.9,23.4,30.34,NW,309,5.6,9.6,83,0.00,BKN,,0.00,608.0,WeatherDisplay:10.37,2013-03-06 18:32:00,
2013-03-06 12:37:00,27.6,23.1,30.34,NW,306,10.9,13.2,83,0.00,BKN,,0.00,492.0,WeatherDisplay:10.37,2013-03-06 18:37:00,
2013-03-06 12:42:00,27.9,23.4,30.34,West,277,3.9,9.6,83,0.00,BKN,,0.00,492.0,WeatherDisplay:10.37,2013-03-06 18:42:00,
2013-03-06 12:47:00,27.9,23.1,30.34,West,267,3.5,4.8,82,0.00,BKN,,0.00,501.0,WeatherDisplay:10.37,2013-03-06 18:47:00,
2013-03-06 12:52:00,28.2,23.4,30.34,NW,325,5.9,9.2,82,0.00,BKN,,0.00,471.0,WeatherDisplay:10.37,2013-03-06 18:52:00,
2013-03-06 12:57:00,28.4,23.3,30.34,WNW,297,5.4,6.0,81,0.00,BKN,,0.00,429.0,WeatherDisplay:10.37,2013-03-06 18:57:00,
2013-03-06 13:02:00,27.9,22.8,30.34,West,279,8.0,10.8,81,0.00,BKN,,0.00,429.0,WeatherDisplay:10.37,2013-03-06 19:02:00,
2013-03-06 13:07:00,27.9,22.8,30.34,WNW,287,9.4,13.2,81,0.00,BKN,,0.00,420.0,WeatherDisplay:10.37,2013-03-06 19:07:00,
2013-03-06 13:12:00,27.8,22.4,30.34,West,267,4.7,6.0,80,0.00,BKN,,0.00,424.0,WeatherDisplay:10.37,2013-03-06 19:12:00,
2013-03-06 13:17:00,27.9,22.5,30.34,WNW,286,6.9,10.8,80,0.01,RA,,0.01,429.0,WeatherDisplay:10.37,2013-03-06 19:17:00,
2013-03-06 13:22:00,27.9,22.5,30.34,WNW,291,8.9,11.5,80,0.01,RA,,0.01,431.0,WeatherDisplay:10.37,2013-03-06 19:22:00,
2013-03-06 13:27:00,28.1,22.7,30.34,WSW,253,5.5,7.2,80,0.01,BKN,,0.01,413.0,WeatherDisplay:10.37,2013-03-06 19:27:00,
2013-03-06 13:32:00,28.2,22.8,30.34,WNW,296,8.3,9.6,80,0.01,BKN,,0.01,432.0,WeatherDisplay:10.37,2013-03-06 19:32:00,
2013-03-06 13:37:00,28.4,22.7,30.34,WNW,295,5.4,9.2,79,0.01,BKN,,0.01,413.0,WeatherDisplay:10.37,2013-03-06 19:37:00,
2013-03-06 13:42:00,28.4,22.7,30.34,WNW,292,8.6,13.2,79,0.01,BKN,,0.01,410.0,WeatherDisplay:10.37,2013-03-06 19:42:00,
2013-03-06 13:47:00,28.4,22.4,30.34,NW,307,6.0,6.0,78,0.01,BKN,,0.01,385.0,WeatherDisplay:10.37,2013-03-06 19:47:00,
2013-03-06 13:52:00,28.7,22.7,30.34,WNW,289,4.5,5.8,78,0.01,BKN,,0.01,364.0,WeatherDisplay:10.37,2013-03-06 19:52:00,
2013-03-06 13:57:00,28.7,22.7,30.34,NW,311,5.6,7.2,78,0.01,BKN,,0.01,366.0,WeatherDisplay:10.37,2013-03-06 19:57:00,
2013-03-06 14:02:00,28.7,22.4,30.34,West,277,2.4,3.6,77,0.01,BKN,,0.01,364.0,WeatherDisplay:10.37,2013-03-06 20:02:00,
2013-03-06 14:07:00,28.5,22.2,30.34,WNW,285,5.3,9.2,77,0.01,BKN,,0.01,360.0,WeatherDisplay:10.37,2013-03-06 20:07:00,
2013-03-06 14:12:00,28.8,22.5,30.34,WNW,290,8.7,10.8,77,0.01,BKN,,0.01,366.0,WeatherDisplay:10.37,2013-03-06 20:12:00,
2013-03-06 14:17:00,28.8,22.5,30.33,NW,305,3.0,4.8,77,0.00,BKN,,0.01,359.0,WeatherDisplay:10.37,2013-03-06 20:17:00,
2013-03-06 14:22:00,29.0,22.7,30.33,West,271,3.6,8.1,77,0.00,SCT,,0.01,338.0,WeatherDisplay:10.37,2013-03-06 20:22:00,
2013-03-06 14:27:00,29.0,22.7,30.33,WNW,294,6.1,7.2,77,0.00,SCT,,0.01,334.0,WeatherDisplay:10.37,2013-03-06 20:27:00,
2013-03-06 14:32:00,28.8,22.5,30.34,WNW,290,9.3,10.8,77,0.00,SCT,,0.01,330.0,WeatherDisplay:10.37,2013-03-06 20:32:00,
2013-03-06 14:37:00,28.7,22.4,30.34,West,266,4.8,7.2,77,0.00,SCT,,0.01,313.0,WeatherDisplay:10.37,2013-03-06 20:37:00,
2013-03-06 14:42:00,28.8,22.5,30.34,West,278,5.5,6.0,77,0.00,SCT,,0.01,304.0,WeatherDisplay:10.37,2013-03-06 20:42:00,
2013-03-06 14:47:00,29.0,22.4,30.34,WNW,289,5.5,9.6,76,0.00,SCT,,0.01,285.0,WeatherDisplay:10.37,2013-03-06 20:47:00,
2013-03-06 14:52:00,29.0,22.4,30.34,WNW,285,4.8,6.0,76,0.00,SCT,,0.01,283.0,WeatherDisplay:10.37,2013-03-06 20:52:00,
2013-03-06 14:57:00,29.0,22.4,30.34,WNW,286,6.3,8.4,76,0.00,SCT,,0.01,279.0,WeatherDisplay:10.37,2013-03-06 20:57:00,
2013-03-06 15:02:00,28.8,22.2,30.34,WNW,282,6.3,12.0,76,0.00,SCT,,0.01,281.0,WeatherDisplay:10.37,2013-03-06 21:02:00,
2013-03-06 15:07:00,28.7,22.1,30.34,WNW,285,5.9,12.7,76,0.00,SCT,,0.01,269.0,WeatherDisplay:10.37,2013-03-06 21:07:00,
2013-03-06 15:12:00,28.7,22.1,30.34,WNW,286,6.4,10.8,76,0.00,SCT,,0.01,265.0,WeatherDisplay:10.37,2013-03-06 21:12:00,
2013-03-06 15:17:00,28.5,21.9,30.34,WNW,291,3.0,11.0,76,0.00,SCT,,0.01,258.0,WeatherDisplay:10.37,2013-03-06 21:17:00,
2013-03-06 15:22:00,28.5,21.6,30.34,WNW,294,5.0,10.0,75,0.00,SCT,,0.01,244.0,WeatherDisplay:10.37,2013-03-06 21:22:00,
2013-03-06 15:27:00,28.5,21.6,30.34,WNW,284,6.4,7.2,75,0.00,SCT,,0.01,241.0,WeatherDisplay:10.37,2013-03-06 21:27:00,
2013-03-06 15:32:00,28.4,21.5,30.34,NW,304,6.1,9.2,75,0.00,SCT,,0.01,234.0,WeatherDisplay:10.37,2013-03-06 21:32:00,
2013-03-06 15:37:00,28.5,21.6,30.34,NW,304,8.0,8.4,75,0.00,SCT,,0.01,236.0,WeatherDisplay:10.37,2013-03-06 21:37:00,
2013-03-06 15:42:00,28.5,21.6,30.34,West,279,5.4,9.6,75,0.00,CLR,,0.01,230.0,WeatherDisplay:10.37,2013-03-06 21:42:00,
2013-03-06 15:47:00,28.7,21.5,30.34,WNW,285,3.7,4.8,74,0.00,CLR,,0.01,220.0,WeatherDisplay:10.37,2013-03-06 21:47:00,
2013-03-06 15:52:00,28.7,21.1,30.34,West,281,5.8,8.4,73,0.00,CLR,,0.01,213.0,WeatherDisplay:10.37,2013-03-06 21:52:00,
2013-03-06 15:57:00,28.7,21.1,30.34,West,279,3.0,9.2,73,0.00,CLR,,0.01,207.0,WeatherDisplay:10.37,2013-03-06 21:57:00,
2013-03-06 16:02:00,28.8,21.6,30.34,NW,312,1.8,6.0,74,0.00,CLR,,0.01,200.0,WeatherDisplay:10.37,2013-03-06 22:02:00,
2013-03-06 16:07:00,28.8,21.2,30.34,West,278,2.5,6.0,73,0.00,CLR,,0.01,227.0,WeatherDisplay:10.37,2013-03-06 22:07:00,
2013-03-06 16:12:00,29.1,21.5,30.34,WNW,296,1.3,3.5,73,0.00,CLR,,0.01,459.0,WeatherDisplay:10.37,2013-03-06 22:12:00,
2013-03-06 16:17:00,29.1,21.2,30.34,WNW,286,0.9,4.6,72,0.00,CLR,,0.01,373.0,WeatherDisplay:10.37,2013-03-06 22:17:00,
2013-03-06 16:22:00,29.4,21.5,30.34,NW,308,4.1,8.4,72,0.00,CLR,,0.01,285.0,WeatherDisplay:10.37,2013-03-06 22:22:00,
2013-03-06 16:27:00,29.4,21.2,30.34,WNW,285,5.3,7.2,71,0.00,CLR,,0.01,255.0,WeatherDisplay:10.37,2013-03-06 22:27:00,
2013-03-06 16:32:00,29.4,20.8,30.34,NW,320,6.9,8.4,70,0.00,CLR,,0.01,188.0,WeatherDisplay:10.37,2013-03-06 22:32:00,
2013-03-06 16:37:00,29.4,20.8,30.34,NW,321,3.2,8.4,70,0.00,CLR,,0.01,165.0,WeatherDisplay:10.37,2013-03-06 22:37:00,
2013-03-06 16:42:00,29.4,20.5,30.34,WNW,288,3.0,9.2,69,0.00,CLR,,0.01,125.0,WeatherDisplay:10.37,2013-03-06 22:42:00,
2013-03-06 16:47:00,29.5,20.6,30.34,WNW,290,4.8,7.2,69,0.00,CLR,,0.01,135.0,WeatherDisplay:10.37,2013-03-06 22:47:00,
2013-03-06 16:52:00,29.5,20.2,30.34,WNW,285,4.1,6.9,68,0.00,CLR,,0.01,118.0,WeatherDisplay:10.37,2013-03-06 22:52:00,
2013-03-06 16:57:00,29.5,20.2,30.34,WNW,293,2.0,4.8,68,0.00,CLR,,0.01,93.0,WeatherDisplay:10.37,2013-03-06 22:57:00,
2013-03-06 17:02:00,29.5,20.2,30.33,WNW,282,0.4,4.6,68,0.00,CLR,,0.01,97.0,WeatherDisplay:10.37,2013-03-06 23:02:00,
2013-03-06 17:07:00,29.5,20.2,30.33,WNW,288,1.7,4.8,68,0.00,CLR,,0.01,88.0,WeatherDisplay:10.37,2013-03-06 23:07:00,
2013-03-06 17:12:00,29.4,19.8,30.33,NW,305,1.0,3.6,67,0.00,CLR,,0.01,65.0,WeatherDisplay:10.37,2013-03-06 23:12:00,
2013-03-06 17:17:00,29.4,19.8,30.33,WNW,286,0.0,0.0,67,0.00,CLR,,0.01,47.0,WeatherDisplay:10.37,2013-03-06 23:17:00,
2013-03-06 17:22:00,29.1,19.5,30.33,WNW,286,0.8,3.6,67,0.00,CLR,,0.01,44.0,WeatherDisplay:10.37,2013-03-06 23:22:00,
2013-03-06 17:27:00,29.0,19.4,30.33,WNW,285,2.7,4.8,67,0.00,CLR,,0.01,30.0,WeatherDisplay:10.37,2013-03-06 23:27:00,
2013-03-06 17:32:00,29.0,19.4,30.34,West,271,0.9,4.6,67,0.00,CLR,,0.01,21.0,WeatherDisplay:10.37,2013-03-06 23:32:00,
2013-03-06 17:37:00,28.7,19.5,30.34,West,271,0.1,2.4,68,0.00,CLR,,0.01,18.0,WeatherDisplay:10.37,2013-03-06 23:37:00,
2013-03-06 17:42:00,28.5,19.3,30.34,West,271,0.0,0.0,68,0.00,CLR,,0.01,12.0,WeatherDisplay:10.37,2013-03-06 23:42:00,
2013-03-06 17:47:00,28.4,19.2,30.34,West,271,1.0,3.6,68,0.00,CLR,,0.01,9.0,WeatherDisplay:10.37,2013-03-06 23:47:00,
2013-03-06 17:52:00,28.2,19.3,30.34,West,271,0.0,0.0,69,0.00,CLR,,0.01,7.0,WeatherDisplay:10.37,2013-03-06 23:52:00,
2013-03-06 17:57:00,28.1,19.2,30.34,West,271,0.0,1.2,69,0.00,CLR,,0.01,0.0,WeatherDisplay:10.37,2013-03-06 23:57:00,
2013-03-06 18:02:00,27.9,19.4,30.34,West,271,0.0,0.0,70,0.00,CLR,,0.01,0.0,WeatherDisplay:10.37,2013-03-07 00:02:00,
2013-03-06 18:07:00,27.6,19.1,30.34,West,271,0.0,0.0,70,0.00,CLR,,0.01,0.0,WeatherDisplay:10.37,2013-03-07 00:07:00,
2013-03-06 18:12:00,27.5,19.0,30.34,West,271,0.0,0.0,70,0.00,CLR,,0.01,0.0,WeatherDisplay:10.37,2013-03-07 00:12:00,
2013-03-06 18:17:00,27.2,19.0,30.34,West,271,0.0,0.0,71,0.00,CLR,,0.01,0.0,WeatherDisplay:10.37,2013-03-07 00:17:00,
2013-03-06 18:22:00,26.9,19.1,30.34,West,271,0.0,2.3,72,0.00,CLR,,0.01,0.0,WeatherDisplay:10.37,2013-03-07 00:22:00,
2013-03-06 18:27:00,26.6,18.8,30.34,West,271,0.0,0.0,72,0.00,CLR,,0.01,0.0,WeatherDisplay:10.37,2013-03-07 00:27:00,
2013-03-06 18:32:00,26.3,18.8,30.34,West,271,0.0,0.0,73,0.00,CLR,,0.01,0.0,WeatherDisplay:10.37,2013-03-07 00:32:00,
2013-03-06 18:37:00,26.1,18.6,30.34,West,271,1.6,2.4,73,0.00,CLR,,0.01,0.0,WeatherDisplay:10.37,2013-03-07 00:37:00,
2013-03-06 18:42:00,26.0,18.5,30.34,West,271,0.0,0.0,73,0.00,CLR,,0.01,0.0,WeatherDisplay:10.37,2013-03-07 00:42:00,
2013-03-06 18:47:00,25.8,18.3,30.35,West,271,0.0,0.0,73,0.00,CLR,,0.01,0.0,WeatherDisplay:10.37,2013-03-07 00:47:00,
2013-03-06 18:52:00,25.7,18.2,30.35,West,271,0.0,0.0,73,0.00,CLR,,0.01,0.0,WeatherDisplay:10.37,2013-03-07 00:52:00,
2013-03-06 18:57:00,25.7,18.2,30.35,West,271,0.0,0.0,73,0.00,CLR,,0.01,0.0,WeatherDisplay:10.37,2013-03-07 00:57:00,
2013-03-06 19:02:00,25.6,18.1,30.35,West,271,0.0,2.3,73,0.00,CLR,,0.01,0.0,WeatherDisplay:10.37,2013-03-07 01:02:00,
2013-03-06 19:07:00,25.4,17.9,30.35,West,271,0.0,0.0,73,0.00,CLR,,0.01,0.0,WeatherDisplay:10.37,2013-03-07 01:07:00,
2013-03-06 19:12:00,25.3,17.9,30.35,West,271,0.0,3.5,73,0.00,CLR,,0.01,0.0,WeatherDisplay:10.37,2013-03-07 01:12:00,
2013-03-06 19:17:00,25.1,17.7,30.35,West,271,0.0,0.0,73,0.00,CLR,,0.01,0.0,WeatherDisplay:10.37,2013-03-07 01:17:00,
2013-03-06 19:22:00,25.0,17.6,30.35,West,271,0.0,0.0,73,0.00,CLR,,0.01,0.0,WeatherDisplay:10.37,2013-03-07 01:22:00,
2013-03-06 19:27:00,24.8,17.4,30.35,West,271,0.0,0.0,73,0.00,CLR,,0.01,0.0,WeatherDisplay:10.37,2013-03-07 01:27:00,
2013-03-06 19:32:00,24.7,17.3,30.35,West,271,0.0,0.0,73,0.00,CLR,,0.01,0.0,WeatherDisplay:10.37,2013-03-07 01:32:00,
2013-03-06 19:37:00,24.5,17.1,30.35,West,271,0.0,0.0,73,0.00,CLR,,0.01,0.0,WeatherDisplay:10.37,2013-03-07 01:37:00,
2013-03-06 19:42:00,24.1,17.0,30.35,West,271,0.0,0.0,74,0.00,CLR,,0.01,0.0,WeatherDisplay:10.37,2013-03-07 01:42:00,
2013-03-06 19:47:00,23.9,16.8,30.35,West,271,0.0,0.0,74,0.00,CLR,,0.01,0.0,WeatherDisplay:10.37,2013-03-07 01:47:00,
2013-03-06 19:52:00,23.8,17.0,30.35,West,271,0.0,0.0,75,0.00,CLR,,0.01,0.0,WeatherDisplay:10.37,2013-03-07 01:52:00,
2013-03-06 19:57:00,23.6,16.8,30.35,West,271,0.0,0.0,75,0.00,CLR,,0.01,0.0,WeatherDisplay:10.37,2013-03-07 01:57:00,
2013-03-06 20:02:00,23.5,16.7,30.35,West,271,0.0,0.0,75,0.00,CLR,,0.01,0.0,WeatherDisplay:10.37,2013-03-07 02:02:00,
2013-03-06 20:07:00,23.3,16.9,30.35,West,271,0.0,0.0,76,0.00,CLR,,0.01,0.0,WeatherDisplay:10.37,2013-03-07 02:07:00,
2013-03-06 20:12:00,23.2,16.8,30.35,West,271,0.0,0.0,76,0.00,CLR,,0.01,0.0,WeatherDisplay:10.37,2013-03-07 02:12:00,
2013-03-06 20:17:00,23.0,16.6,30.35,West,271,0.0,0.0,76,0.00,CLR,,0.01,0.0,WeatherDisplay:10.37,2013-03-07 02:17:00,
2013-03-06 20:22:00,22.9,16.5,30.35,West,271,0.0,0.0,76,0.00,CLR,,0.01,0.0,WeatherDisplay:10.37,2013-03-07 02:22:00,
2013-03-06 20:27:00,22.7,16.3,30.35,West,271,0.0,0.0,76,0.00,CLR,,0.01,0.0,WeatherDisplay:10.37,2013-03-07 02:27:00,
2013-03-06 20:32:00,22.5,16.4,30.35,West,271,0.0,0.0,77,0.00,CLR,,0.01,0.0,WeatherDisplay:10.37,2013-03-07 02:32:00,
2013-03-06 20:37:00,22.1,15.7,30.35,West,271,0.0,0.0,76,0.00,CLR,,0.01,0.0,WeatherDisplay:10.37,2013-03-07 02:37:00,
2013-03-06 20:42:00,21.6,15.5,30.35,West,271,0.0,0.0,77,0.00,CLR,,0.01,0.0,WeatherDisplay:10.37,2013-03-07 02:42:00,
2013-03-06 20:47:00,20.8,15.0,30.36,West,271,0.0,0.0,78,0.00,CLR,,0.01,0.0,WeatherDisplay:10.37,2013-03-07 02:47:00,
2013-03-06 20:52:00,20.5,15.0,30.36,West,271,0.0,0.0,79,0.00,CLR,,0.01,0.0,WeatherDisplay:10.37,2013-03-07 02:52:00,
2013-03-06 20:57:00,20.3,14.8,30.36,West,271,0.0,0.0,79,0.00,CLR,,0.01,0.0,WeatherDisplay:10.37,2013-03-07 02:57:00,
2013-03-06 21:02:00,20.0,14.8,30.36,West,271,0.0,0.0,80,0.00,CLR,,0.01,0.0,WeatherDisplay:10.37,2013-03-07 03:02:00,
2013-03-06 21:07:00,19.9,14.7,30.36,West,271,0.0,0.0,80,0.00,CLR,,0.01,0.0,WeatherDisplay:10.37,2013-03-07 03:07:00,
2013-03-06 21:12:00,19.5,14.3,30.36,West,271,0.0,0.0,80,0.00,CLR,,0.01,0.0,WeatherDisplay:10.37,2013-03-07 03:12:00,
2013-03-06 21:17:00,19.4,14.5,30.36,West,271,0.0,0.0,81,0.00,CLR,,0.01,0.0,WeatherDisplay:10.37,2013-03-07 03:17:00,
2013-03-06 21:22:00,19.5,14.9,30.36,West,271,0.0,0.0,82,0.00,CLR,,0.01,0.0,WeatherDisplay:10.37,2013-03-07 03:22:00,
2013-03-06 21:27:00,19.5,14.9,30.36,West,271,0.0,0.0,82,0.00,CLR,,0.01,0.0,WeatherDisplay:10.37,2013-03-07 03:27:00,
2013-03-06 21:32:00,19.4,14.8,30.36,West,271,0.0,0.0,82,0.00,CLR,,0.01,0.0,WeatherDisplay:10.37,2013-03-07 03:32:00,
2013-03-06 21:37:00,19.1,14.5,30.36,West,271,0.0,0.0,82,0.00,CLR,,0.01,0.0,WeatherDisplay:10.37,2013-03-07 03:37:00,
2013-03-06 21:42:00,18.8,14.2,30.36,West,271,0.0,0.0,82,0.00,CLR,,0.01,0.0,WeatherDisplay:10.37,2013-03-07 03:42:00,
2013-03-06 21:47:00,18.6,14.0,30.37,West,271,0.0,0.0,82,0.00,CLR,,0.01,0.0,WeatherDisplay:10.37,2013-03-07 03:47:00,
2013-03-06 21:52:00,18.3,13.7,30.37,West,271,0.0,0.0,82,0.00,CLR,,0.01,0.0,WeatherDisplay:10.37,2013-03-07 03:52:00,
2013-03-06 21:57:00,17.8,13.5,30.37,West,271,0.0,0.0,83,0.00,CLR,,0.01,0.0,WeatherDisplay:10.37,2013-03-07 03:57:00,
2013-03-06 22:02:00,17.5,13.2,30.36,West,271,0.0,0.0,83,0.00,CLR,,0.01,0.0,WeatherDisplay:10.37,2013-03-07 04:02:00,
2013-03-06 22:07:00,17.2,12.9,30.36,West,271,0.0,0.0,83,0.00,CLR,,0.01,0.0,WeatherDisplay:10.37,2013-03-07 04:07:00,
2013-03-06 22:12:00,16.7,12.4,30.36,West,271,0.0,0.0,83,0.00,CLR,,0.01,0.0,WeatherDisplay:10.37,2013-03-07 04:12:00,
2013-03-06 22:17:00,16.7,12.7,30.36,West,271,0.0,0.0,84,0.00,CLR,,0.01,0.0,WeatherDisplay:10.37,2013-03-07 04:17:00,
2013-03-06 22:22:00,16.5,12.5,30.36,West,271,0.0,0.0,84,0.00,CLR,,0.01,0.0,WeatherDisplay:10.37,2013-03-07 04:22:00,
2013-03-06 22:27:00,16.4,12.4,30.36,West,271,0.0,0.0,84,0.00,CLR,,0.01,0.0,WeatherDisplay:10.37,2013-03-07 04:27:00,
2013-03-06 22:32:00,16.4,12.7,30.36,West,271,0.0,0.0,85,0.00,CLR,,0.01,0.0,WeatherDisplay:10.37,2013-03-07 04:32:00,
2013-03-06 22:37:00,16.2,12.5,30.36,West,271,0.0,0.0,85,0.00,CLR,,0.01,0.0,WeatherDisplay:10.37,2013-03-07 04:37:00,
2013-03-06 22:42:00,16.2,12.5,30.36,West,271,0.0,0.0,85,0.00,CLR,,0.01,0.0,WeatherDisplay:10.37,2013-03-07 04:42:00,
2013-03-06 22:47:00,16.1,12.4,30.36,West,271,0.0,0.0,85,0.00,CLR,,0.01,0.0,WeatherDisplay:10.37,2013-03-07 04:47:00,
2013-03-06 22:52:00,16.1,12.7,30.36,West,271,0.0,0.0,86,0.00,CLR,,0.01,0.0,WeatherDisplay:10.37,2013-03-07 04:52:00,
2013-03-06 22:57:00,16.1,12.7,30.36,West,271,0.0,0.0,86,0.00,CLR,,0.01,0.0,WeatherDisplay:10.37,2013-03-07 04:57:00,
2013-03-06 23:00:00,16.1,12.7,30.36,West,271,0.0,0.0,86,0.00,CLR,,0.01,0.0,WeatherDisplay:10.37,2013-03-07 05:00:00,
2013-03-06 23:01:00,16.1,12.7,30.36,West,271,0.0,0.0,86,0.00,CLR,,0.01,0.0,WeatherDisplay:10.37,2013-03-07 05:01:00,
2013-03-06 23:04:00,16.1,12.7,30.36,West,271,0.0,0.0,86,0.00,CLR,,0.01,0.0,WeatherDisplay:10.37,2013-03-07 05:04:00,
2013-03-06 23:09:00,15.7,12.3,30.36,West,271,0.0,0.0,86,0.00,CLR,,0.01,0.0,WeatherDisplay:10.37,2013-03-07 05:09:00,
2013-03-06 23:14:00,15.4,12.0,30.36,West,271,0.0,0.0,86,0.00,CLR,,0.01,0.0,WeatherDisplay:10.37,2013-03-07 05:14:00,
2013-03-06 23:19:00,15.2,11.8,30.37,West,271,0.0,0.0,86,0.00,CLR,,0.01,0.0,WeatherDisplay:10.37,2013-03-07 05:19:00,
2013-03-06 23:24:00,14.9,11.5,30.37,West,271,0.0,0.0,86,0.00,CLR,,0.01,0.0,WeatherDisplay:10.37,2013-03-07 05:24:00,
2013-03-06 23:29:00,14.6,11.2,30.37,West,271,0.0,0.0,86,0.00,CLR,,0.01,0.0,WeatherDisplay:10.37,2013-03-07 05:29:00,
2013-03-06 23:34:00,14.4,11.0,30.36,West,271,0.0,0.0,86,0.00,CLR,,0.01,0.0,WeatherDisplay:10.37,2013-03-07 05:34:00,
2013-03-06 23:39:00,14.3,11.1,30.36,West,271,0.0,0.0,87,0.00,CLR,,0.01,0.0,WeatherDisplay:10.37,2013-03-07 05:39:00,
2013-03-06 23:44:00,14.1,10.9,30.36,West,271,0.0,0.0,87,0.00,CLR,,0.01,0.0,WeatherDisplay:10.37,2013-03-07 05:44:00,
2013-03-06 23:49:00,14.1,10.9,30.37,West,271,0.0,0.0,87,0.00,CLR,,0.01,0.0,WeatherDisplay:10.37,2013-03-07 05:49:00,
2013-03-06 23:54:00,14.0,10.8,30.37,West,271,0.0,0.0,87,0.00,CLR,,0.01,0.0,WeatherDisplay:10.37,2013-03-07 05:54:00,
2013-03-06 23:59:00,13.8,10.6,30.36,West,271,0.0,0.0,87,0.00,CLR,,0.01,0.0,WeatherDisplay:10.37,2013-03-07 05:59:00,